sensor_id;sensor_type;location;lat;lon;timestamp;pressure;altitude;pressure_sealevel;temperature;humidity
45050;BME280;61798;48.048;-1.928;2023-05-19T00:00:13;101812.63;;;8.58;100.00
45050;BME280;61798;48.048;-1.928;2023-05-19T00:02:20;101842.94;;;8.95;100.00
45050;BME280;61798;48.048;-1.928;2023-05-19T00:04:26;101837.72;;;8.75;100.00
45050;BME280;61798;48.048;-1.928;2023-05-19T00:06:32;101843.84;;;8.86;100.00
45050;BME280;61798;48.048;-1.928;2023-05-19T00:08:38;101845.00;;;8.83;100.00
45050;BME280;61798;48.048;-1.928;2023-05-19T00:10:44;101818.41;;;8.53;100.00
45050;BME280;61798;48.048;-1.928;2023-05-19T00:12:51;101825.94;;;8.68;100.00
45050;BME280;61798;48.048;-1.928;2023-05-19T00:14:57;101822.97;;;8.71;100.00
45050;BME280;61798;48.048;-1.928;2023-05-19T00:17:03;101770.66;;;8.40;100.00
45050;BME280;61798;48.048;-1.928;2023-05-19T00:19:09;101835.81;;;8.67;100.00
45050;BME280;61798;48.048;-1.928;2023-05-19T00:21:15;101831.59;;;8.65;100.00
45050;BME280;61798;48.048;-1.928;2023-05-19T00:23:21;101834.94;;;8.39;100.00
45050;BME280;61798;48.048;-1.928;2023-05-19T00:25:27;101802.47;;;8.05;100.00
45050;BME280;61798;48.048;-1.928;2023-05-19T00:27:32;101824.63;;;7.87;100.00
45050;BME280;61798;48.048;-1.928;2023-05-19T00:29:38;101831.63;;;7.88;100.00
45050;BME280;61798;48.048;-1.928;2023-05-19T00:31:44;101784.03;;;7.83;100.00
45050;BME280;61798;48.048;-1.928;2023-05-19T00:33:50;101795.44;;;7.76;100.00
45050;BME280;61798;48.048;-1.928;2023-05-19T00:35:56;101805.56;;;7.72;100.00
45050;BME280;61798;48.048;-1.928;2023-05-19T00:38:02;101842.25;;;7.60;100.00
45050;BME280;61798;48.048;-1.928;2023-05-19T00:40:08;101845.97;;;7.77;100.00
45050;BME280;61798;48.048;-1.928;2023-05-19T00:42:15;101841.59;;;7.86;100.00
45050;BME280;61798;48.048;-1.928;2023-05-19T00:44:21;101831.41;;;7.71;100.00
45050;BME280;61798;48.048;-1.928;2023-05-19T00:46:27;101857.31;;;7.89;100.00
45050;BME280;61798;48.048;-1.928;2023-05-19T00:48:33;101851.31;;;7.87;100.00
45050;BME280;61798;48.048;-1.928;2023-05-19T00:50:39;101838.66;;;7.89;100.00
45050;BME280;61798;48.048;-1.928;2023-05-19T00:52:45;101843.78;;;8.11;100.00
45050;BME280;61798;48.048;-1.928;2023-05-19T00:54:52;101847.06;;;7.95;100.00
45050;BME280;61798;48.048;-1.928;2023-05-19T00:56:59;101812.78;;;7.90;100.00
45050;BME280;61798;48.048;-1.928;2023-05-19T00:59:05;101856.88;;;8.04;100.00
45050;BME280;61798;48.048;-1.928;2023-05-19T01:01:11;101849.13;;;8.01;100.00
45050;BME280;61798;48.048;-1.928;2023-05-19T01:03:18;101818.63;;;7.65;100.00
45050;BME280;61798;48.048;-1.928;2023-05-19T01:05:25;101843.97;;;7.89;100.00
45050;BME280;61798;48.048;-1.928;2023-05-19T01:07:31;101808.78;;;7.76;100.00
45050;BME280;61798;48.048;-1.928;2023-05-19T01:09:38;101816.91;;;7.84;100.00
45050;BME280;61798;48.048;-1.928;2023-05-19T01:11:45;101831.59;;;7.98;100.00
45050;BME280;61798;48.048;-1.928;2023-05-19T01:13:51;101798.53;;;7.71;100.00
45050;BME280;61798;48.048;-1.928;2023-05-19T01:16:04;101854.09;;;7.86;100.00
45050;BME280;61798;48.048;-1.928;2023-05-19T01:18:14;101847.75;;;7.97;100.00
45050;BME280;61798;48.048;-1.928;2023-05-19T01:20:33;101826.91;;;7.72;100.00
45050;BME280;61798;48.048;-1.928;2023-05-19T01:32:10;101844.63;;;7.33;100.00
45050;BME280;61798;48.048;-1.928;2023-05-19T01:34:17;101841.09;;;7.53;100.00
45050;BME280;61798;48.048;-1.928;2023-05-19T01:36:25;101848.84;;;7.46;100.00
45050;BME280;61798;48.048;-1.928;2023-05-19T01:38:33;101827.78;;;7.33;100.00
45050;BME280;61798;48.048;-1.928;2023-05-19T01:40:40;101838.53;;;7.81;100.00
45050;BME280;61798;48.048;-1.928;2023-05-19T01:42:46;101825.53;;;7.58;100.00
45050;BME280;61798;48.048;-1.928;2023-05-19T01:44:54;101824.69;;;7.37;100.00
45050;BME280;61798;48.048;-1.928;2023-05-19T01:47:00;101836.06;;;7.29;100.00
45050;BME280;61798;48.048;-1.928;2023-05-19T01:49:07;101845.22;;;7.27;100.00
45050;BME280;61798;48.048;-1.928;2023-05-19T01:51:13;101795.81;;;7.03;100.00
45050;BME280;61798;48.048;-1.928;2023-05-19T01:53:19;101816.72;;;7.17;100.00
45050;BME280;61798;48.048;-1.928;2023-05-19T01:55:25;101826.69;;;7.05;100.00
45050;BME280;61798;48.048;-1.928;2023-05-19T01:58:01;101843.66;;;7.14;100.00
45050;BME280;61798;48.048;-1.928;2023-05-19T02:00:40;101839.31;;;7.23;100.00
45050;BME280;61798;48.048;-1.928;2023-05-19T02:05:13;101849.69;;;7.46;100.00
45050;BME280;61798;48.048;-1.928;2023-05-19T02:10:06;101825.28;;;7.21;100.00
45050;BME280;61798;48.048;-1.928;2023-05-19T02:12:28;101840.16;;;7.44;100.00
45050;BME280;61798;48.048;-1.928;2023-05-19T02:14:53;101840.31;;;7.32;100.00
45050;BME280;61798;48.048;-1.928;2023-05-19T02:17:03;101835.38;;;7.47;100.00
45050;BME280;61798;48.048;-1.928;2023-05-19T02:19:33;101806.34;;;7.04;100.00
45050;BME280;61798;48.048;-1.928;2023-05-19T02:21:38;101803.69;;;7.24;100.00
45050;BME280;61798;48.048;-1.928;2023-05-19T02:23:45;101829.31;;;7.45;100.00
45050;BME280;61798;48.048;-1.928;2023-05-19T02:25:51;101818.81;;;7.44;100.00
45050;BME280;61798;48.048;-1.928;2023-05-19T02:27:58;101823.31;;;7.23;100.00
45050;BME280;61798;48.048;-1.928;2023-05-19T02:30:05;101809.84;;;6.95;100.00
45050;BME280;61798;48.048;-1.928;2023-05-19T02:32:13;101808.00;;;6.85;100.00
45050;BME280;61798;48.048;-1.928;2023-05-19T02:34:19;101818.97;;;7.02;100.00
45050;BME280;61798;48.048;-1.928;2023-05-19T02:36:25;101813.47;;;6.94;100.00
45050;BME280;61798;48.048;-1.928;2023-05-19T02:38:31;101836.22;;;6.98;100.00
45050;BME280;61798;48.048;-1.928;2023-05-19T02:40:37;101789.34;;;6.75;100.00
45050;BME280;61798;48.048;-1.928;2023-05-19T02:42:42;101820.50;;;6.95;100.00
45050;BME280;61798;48.048;-1.928;2023-05-19T02:44:48;101829.63;;;7.02;100.00
45050;BME280;61798;48.048;-1.928;2023-05-19T02:46:54;101821.63;;;6.82;100.00
45050;BME280;61798;48.048;-1.928;2023-05-19T02:49:00;101830.44;;;6.93;100.00
45050;BME280;61798;48.048;-1.928;2023-05-19T02:51:06;101796.22;;;6.78;100.00
45050;BME280;61798;48.048;-1.928;2023-05-19T02:53:11;101792.31;;;6.72;100.00
45050;BME280;61798;48.048;-1.928;2023-05-19T02:55:17;101822.44;;;6.93;100.00
45050;BME280;61798;48.048;-1.928;2023-05-19T02:57:23;101808.97;;;6.74;100.00
45050;BME280;61798;48.048;-1.928;2023-05-19T02:59:31;101798.91;;;6.88;100.00
45050;BME280;61798;48.048;-1.928;2023-05-19T03:01:36;101801.06;;;6.43;100.00
45050;BME280;61798;48.048;-1.928;2023-05-19T03:03:42;101813.91;;;6.89;100.00
45050;BME280;61798;48.048;-1.928;2023-05-19T03:05:48;101789.78;;;6.91;100.00
45050;BME280;61798;48.048;-1.928;2023-05-19T03:07:54;101777.16;;;6.63;100.00
45050;BME280;61798;48.048;-1.928;2023-05-19T03:10:01;101823.47;;;6.92;100.00
45050;BME280;61798;48.048;-1.928;2023-05-19T03:12:11;101815.63;;;7.00;100.00
45050;BME280;61798;48.048;-1.928;2023-05-19T03:14:17;101791.75;;;6.89;100.00
45050;BME280;61798;48.048;-1.928;2023-05-19T03:16:23;101814.88;;;6.78;100.00
45050;BME280;61798;48.048;-1.928;2023-05-19T03:18:29;101824.00;;;6.75;100.00
45050;BME280;61798;48.048;-1.928;2023-05-19T03:20:35;101828.44;;;6.65;100.00
45050;BME280;61798;48.048;-1.928;2023-05-19T03:22:40;101817.09;;;6.63;100.00
45050;BME280;61798;48.048;-1.928;2023-05-19T03:24:46;101812.91;;;6.70;100.00
45050;BME280;61798;48.048;-1.928;2023-05-19T03:26:55;101799.88;;;6.77;100.00
45050;BME280;61798;48.048;-1.928;2023-05-19T03:29:01;101812.50;;;6.85;100.00
45050;BME280;61798;48.048;-1.928;2023-05-19T03:31:07;101820.19;;;6.78;100.00
45050;BME280;61798;48.048;-1.928;2023-05-19T03:33:12;101805.75;;;6.71;100.00
45050;BME280;61798;48.048;-1.928;2023-05-19T03:35:18;101807.84;;;6.67;100.00
45050;BME280;61798;48.048;-1.928;2023-05-19T03:37:24;101804.94;;;6.80;100.00
45050;BME280;61798;48.048;-1.928;2023-05-19T03:39:30;101771.53;;;6.86;100.00
45050;BME280;61798;48.048;-1.928;2023-05-19T03:41:35;101801.13;;;6.93;100.00
45050;BME280;61798;48.048;-1.928;2023-05-19T03:43:41;101782.34;;;6.74;100.00
45050;BME280;61798;48.048;-1.928;2023-05-19T03:45:47;101786.53;;;6.67;100.00
45050;BME280;61798;48.048;-1.928;2023-05-19T03:47:53;101803.50;;;6.66;100.00
45050;BME280;61798;48.048;-1.928;2023-05-19T03:49:59;101779.94;;;6.61;100.00
45050;BME280;61798;48.048;-1.928;2023-05-19T03:52:05;101822.75;;;7.09;100.00
45050;BME280;61798;48.048;-1.928;2023-05-19T03:54:11;101803.53;;;6.96;100.00
45050;BME280;61798;48.048;-1.928;2023-05-19T03:56:17;101803.41;;;6.87;100.00
45050;BME280;61798;48.048;-1.928;2023-05-19T03:58:23;101775.34;;;7.03;100.00
45050;BME280;61798;48.048;-1.928;2023-05-19T04:00:28;101822.19;;;7.16;100.00
45050;BME280;61798;48.048;-1.928;2023-05-19T04:02:34;101817.13;;;6.83;100.00
45050;BME280;61798;48.048;-1.928;2023-05-19T04:04:40;101794.53;;;6.97;100.00
45050;BME280;61798;48.048;-1.928;2023-05-19T04:06:46;101815.31;;;7.13;100.00
45050;BME280;61798;48.048;-1.928;2023-05-19T04:08:53;101816.28;;;7.02;100.00
45050;BME280;61798;48.048;-1.928;2023-05-19T04:10:59;101802.25;;;6.90;100.00
45050;BME280;61798;48.048;-1.928;2023-05-19T04:13:05;101771.22;;;6.49;100.00
45050;BME280;61798;48.048;-1.928;2023-05-19T04:15:11;101788.78;;;6.62;100.00
45050;BME280;61798;48.048;-1.928;2023-05-19T04:17:17;101792.84;;;6.56;100.00
45050;BME280;61798;48.048;-1.928;2023-05-19T04:19:23;101822.59;;;6.71;100.00
45050;BME280;61798;48.048;-1.928;2023-05-19T04:21:28;101819.47;;;6.56;100.00
45050;BME280;61798;48.048;-1.928;2023-05-19T04:23:34;101792.44;;;6.61;100.00
45050;BME280;61798;48.048;-1.928;2023-05-19T04:25:40;101826.38;;;6.69;100.00
45050;BME280;61798;48.048;-1.928;2023-05-19T04:27:46;101840.97;;;6.94;100.00
45050;BME280;61798;48.048;-1.928;2023-05-19T04:29:53;101812.66;;;7.03;100.00
45050;BME280;61798;48.048;-1.928;2023-05-19T04:31:59;101840.72;;;7.07;100.00
45050;BME280;61798;48.048;-1.928;2023-05-19T04:34:05;101831.31;;;6.83;100.00
45050;BME280;61798;48.048;-1.928;2023-05-19T04:36:14;101827.22;;;6.89;100.00
45050;BME280;61798;48.048;-1.928;2023-05-19T04:38:22;101834.84;;;7.04;100.00
45050;BME280;61798;48.048;-1.928;2023-05-19T04:40:28;101818.84;;;7.04;100.00
45050;BME280;61798;48.048;-1.928;2023-05-19T04:42:35;101790.22;;;6.96;100.00
45050;BME280;61798;48.048;-1.928;2023-05-19T04:44:41;101807.88;;;7.07;100.00
45050;BME280;61798;48.048;-1.928;2023-05-19T04:46:47;101810.44;;;7.08;100.00
45050;BME280;61798;48.048;-1.928;2023-05-19T04:48:53;101815.19;;;6.95;100.00
45050;BME280;61798;48.048;-1.928;2023-05-19T04:51:00;101814.75;;;7.09;100.00
45050;BME280;61798;48.048;-1.928;2023-05-19T04:53:08;101828.06;;;6.90;100.00
45050;BME280;61798;48.048;-1.928;2023-05-19T04:55:14;101803.94;;;7.01;100.00
45050;BME280;61798;48.048;-1.928;2023-05-19T04:57:20;101829.91;;;7.29;100.00
45050;BME280;61798;48.048;-1.928;2023-05-19T04:59:26;101827.53;;;7.16;100.00
45050;BME280;61798;48.048;-1.928;2023-05-19T05:01:31;101825.72;;;7.36;100.00
45050;BME280;61798;48.048;-1.928;2023-05-19T05:03:38;101826.66;;;7.45;100.00
45050;BME280;61798;48.048;-1.928;2023-05-19T05:05:44;101829.91;;;7.39;100.00
45050;BME280;61798;48.048;-1.928;2023-05-19T05:07:50;101823.44;;;7.22;100.00
45050;BME280;61798;48.048;-1.928;2023-05-19T05:09:58;101804.09;;;7.00;100.00
45050;BME280;61798;48.048;-1.928;2023-05-19T05:12:04;101847.72;;;7.48;100.00
45050;BME280;61798;48.048;-1.928;2023-05-19T05:14:12;101815.59;;;7.10;100.00
45050;BME280;61798;48.048;-1.928;2023-05-19T05:16:18;101842.41;;;7.28;100.00
45050;BME280;61798;48.048;-1.928;2023-05-19T05:18:24;101807.59;;;7.40;100.00
45050;BME280;61798;48.048;-1.928;2023-05-19T05:20:31;101852.03;;;7.69;100.00
45050;BME280;61798;48.048;-1.928;2023-05-19T05:22:37;101809.94;;;7.63;100.00
45050;BME280;61798;48.048;-1.928;2023-05-19T05:24:46;101837.00;;;7.78;100.00
45050;BME280;61798;48.048;-1.928;2023-05-19T05:26:52;101803.75;;;7.63;100.00
45050;BME280;61798;48.048;-1.928;2023-05-19T05:28:58;101835.28;;;7.87;100.00
45050;BME280;61798;48.048;-1.928;2023-05-19T05:31:04;101828.78;;;8.00;100.00
45050;BME280;61798;48.048;-1.928;2023-05-19T05:33:10;101808.56;;;7.97;100.00
45050;BME280;61798;48.048;-1.928;2023-05-19T05:35:16;101839.22;;;8.31;100.00
45050;BME280;61798;48.048;-1.928;2023-05-19T05:37:22;101815.06;;;8.23;100.00
45050;BME280;61798;48.048;-1.928;2023-05-19T05:39:28;101828.91;;;8.36;100.00
45050;BME280;61798;48.048;-1.928;2023-05-19T05:41:34;101819.66;;;8.31;100.00
45050;BME280;61798;48.048;-1.928;2023-05-19T05:43:40;101824.16;;;8.30;100.00
45050;BME280;61798;48.048;-1.928;2023-05-19T05:45:46;101821.78;;;8.27;100.00
45050;BME280;61798;48.048;-1.928;2023-05-19T05:47:52;101834.53;;;8.33;100.00
45050;BME280;61798;48.048;-1.928;2023-05-19T05:49:58;101847.66;;;8.55;100.00
45050;BME280;61798;48.048;-1.928;2023-05-19T05:52:05;101834.84;;;8.59;100.00
45050;BME280;61798;48.048;-1.928;2023-05-19T05:54:13;101846.94;;;8.63;100.00
45050;BME280;61798;48.048;-1.928;2023-05-19T05:56:21;101848.88;;;8.71;100.00
45050;BME280;61798;48.048;-1.928;2023-05-19T05:58:27;101841.88;;;8.60;100.00
45050;BME280;61798;48.048;-1.928;2023-05-19T06:00:33;101812.19;;;8.34;100.00
45050;BME280;61798;48.048;-1.928;2023-05-19T06:02:40;101855.44;;;8.76;100.00
45050;BME280;61798;48.048;-1.928;2023-05-19T06:04:47;101826.56;;;8.80;100.00
45050;BME280;61798;48.048;-1.928;2023-05-19T06:06:53;101834.75;;;8.97;100.00
45050;BME280;61798;48.048;-1.928;2023-05-19T06:09:01;101836.44;;;8.98;100.00
45050;BME280;61798;48.048;-1.928;2023-05-19T06:11:07;101831.75;;;9.00;100.00
45050;BME280;61798;48.048;-1.928;2023-05-19T06:13:13;101827.34;;;9.09;100.00
45050;BME280;61798;48.048;-1.928;2023-05-19T06:15:22;101843.78;;;9.14;100.00
45050;BME280;61798;48.048;-1.928;2023-05-19T06:17:28;101828.31;;;9.08;100.00
45050;BME280;61798;48.048;-1.928;2023-05-19T06:19:34;101820.69;;;9.13;100.00
45050;BME280;61798;48.048;-1.928;2023-05-19T06:21:40;101815.09;;;9.25;100.00
45050;BME280;61798;48.048;-1.928;2023-05-19T06:23:47;101826.25;;;9.38;100.00
45050;BME280;61798;48.048;-1.928;2023-05-19T06:25:53;101836.63;;;9.41;100.00
45050;BME280;61798;48.048;-1.928;2023-05-19T06:27:59;101804.09;;;9.28;100.00
45050;BME280;61798;48.048;-1.928;2023-05-19T06:30:05;101838.13;;;9.62;100.00
45050;BME280;61798;48.048;-1.928;2023-05-19T06:32:13;101835.00;;;9.67;100.00
45050;BME280;61798;48.048;-1.928;2023-05-19T06:34:19;101841.41;;;9.75;100.00
45050;BME280;61798;48.048;-1.928;2023-05-19T06:36:25;101836.91;;;9.83;100.00
45050;BME280;61798;48.048;-1.928;2023-05-19T06:38:31;101849.69;;;9.90;100.00
45050;BME280;61798;48.048;-1.928;2023-05-19T06:40:37;101840.16;;;9.96;100.00
45050;BME280;61798;48.048;-1.928;2023-05-19T06:42:42;101827.41;;;9.89;100.00
45050;BME280;61798;48.048;-1.928;2023-05-19T06:44:49;101835.09;;;10.19;100.00
45050;BME280;61798;48.048;-1.928;2023-05-19T06:46:54;101843.28;;;10.18;100.00
45050;BME280;61798;48.048;-1.928;2023-05-19T06:49:00;101838.84;;;10.35;100.00
45050;BME280;61798;48.048;-1.928;2023-05-19T06:51:06;101836.69;;;10.39;100.00
45050;BME280;61798;48.048;-1.928;2023-05-19T06:53:15;101801.25;;;10.10;100.00
45050;BME280;61798;48.048;-1.928;2023-05-19T06:55:21;101848.91;;;10.41;100.00
45050;BME280;61798;48.048;-1.928;2023-05-19T06:57:27;101811.69;;;10.30;100.00
45050;BME280;61798;48.048;-1.928;2023-05-19T06:59:33;101848.59;;;10.44;100.00
45050;BME280;61798;48.048;-1.928;2023-05-19T07:01:39;101837.25;;;10.51;100.00
45050;BME280;61798;48.048;-1.928;2023-05-19T07:03:44;101822.47;;;10.46;100.00
45050;BME280;61798;48.048;-1.928;2023-05-19T07:05:51;101812.47;;;10.57;100.00
45050;BME280;61798;48.048;-1.928;2023-05-19T07:07:57;101786.94;;;10.36;100.00
45050;BME280;61798;48.048;-1.928;2023-05-19T07:10:03;101829.78;;;10.88;100.00
45050;BME280;61798;48.048;-1.928;2023-05-19T07:12:09;101829.97;;;10.95;100.00
45050;BME280;61798;48.048;-1.928;2023-05-19T07:14:15;101814.50;;;10.72;100.00
45050;BME280;61798;48.048;-1.928;2023-05-19T07:16:21;101802.47;;;10.76;100.00
45050;BME280;61798;48.048;-1.928;2023-05-19T07:18:27;101769.28;;;10.68;100.00
45050;BME280;61798;48.048;-1.928;2023-05-19T07:20:36;101828.47;;;11.09;100.00
45050;BME280;61798;48.048;-1.928;2023-05-19T07:22:41;101806.53;;;11.14;100.00
45050;BME280;61798;48.048;-1.928;2023-05-19T07:24:47;101803.50;;;11.08;100.00
45050;BME280;61798;48.048;-1.928;2023-05-19T07:26:53;101818.09;;;11.14;100.00
45050;BME280;61798;48.048;-1.928;2023-05-19T07:28:59;101807.53;;;11.21;100.00
45050;BME280;61798;48.048;-1.928;2023-05-19T07:31:05;101797.13;;;11.18;100.00
45050;BME280;61798;48.048;-1.928;2023-05-19T07:33:11;101825.28;;;11.47;100.00
45050;BME280;61798;48.048;-1.928;2023-05-19T07:35:16;101808.84;;;11.42;100.00
45050;BME280;61798;48.048;-1.928;2023-05-19T07:37:22;101816.84;;;11.67;100.00
45050;BME280;61798;48.048;-1.928;2023-05-19T07:39:28;101823.91;;;11.77;100.00
45050;BME280;61798;48.048;-1.928;2023-05-19T07:41:36;101825.56;;;11.78;100.00
45050;BME280;61798;48.048;-1.928;2023-05-19T07:43:42;101820.69;;;11.90;100.00
45050;BME280;61798;48.048;-1.928;2023-05-19T07:45:48;101801.06;;;11.81;100.00
45050;BME280;61798;48.048;-1.928;2023-05-19T07:47:54;101799.22;;;11.73;100.00
45050;BME280;61798;48.048;-1.928;2023-05-19T07:50:00;101826.69;;;12.49;100.00
45050;BME280;61798;48.048;-1.928;2023-05-19T07:52:06;101784.69;;;11.99;100.00
45050;BME280;61798;48.048;-1.928;2023-05-19T07:54:11;101820.44;;;12.08;100.00
45050;BME280;61798;48.048;-1.928;2023-05-19T07:56:18;101783.06;;;12.30;100.00
45050;BME280;61798;48.048;-1.928;2023-05-19T07:58:23;101796.91;;;12.51;100.00
45050;BME280;61798;48.048;-1.928;2023-05-19T08:00:29;101815.28;;;12.39;100.00
45050;BME280;61798;48.048;-1.928;2023-05-19T08:02:35;101809.66;;;12.57;100.00
45050;BME280;61798;48.048;-1.928;2023-05-19T08:04:41;101806.94;;;12.89;100.00
45050;BME280;61798;48.048;-1.928;2023-05-19T08:06:47;101812.88;;;12.52;100.00
45050;BME280;61798;48.048;-1.928;2023-05-19T08:08:53;101815.97;;;12.96;100.00
45050;BME280;61798;48.048;-1.928;2023-05-19T08:11:02;101804.88;;;12.91;100.00
45050;BME280;61798;48.048;-1.928;2023-05-19T08:13:08;101802.50;;;12.73;100.00
45050;BME280;61798;48.048;-1.928;2023-05-19T08:15:14;101797.91;;;13.05;100.00
45050;BME280;61798;48.048;-1.928;2023-05-19T08:17:21;101778.09;;;12.74;100.00
45050;BME280;61798;48.048;-1.928;2023-05-19T08:19:27;101783.16;;;12.77;100.00
45050;BME280;61798;48.048;-1.928;2023-05-19T08:21:33;101779.59;;;13.00;100.00
45050;BME280;61798;48.048;-1.928;2023-05-19T08:23:39;101790.56;;;13.14;100.00
45050;BME280;61798;48.048;-1.928;2023-05-19T08:25:45;101776.66;;;13.10;100.00
45050;BME280;61798;48.048;-1.928;2023-05-19T08:27:51;101786.28;;;13.05;100.00
45050;BME280;61798;48.048;-1.928;2023-05-19T08:29:58;101769.38;;;12.96;100.00
45050;BME280;61798;48.048;-1.928;2023-05-19T08:32:04;101790.00;;;13.04;100.00
45050;BME280;61798;48.048;-1.928;2023-05-19T08:34:10;101789.94;;;13.12;100.00
45050;BME280;61798;48.048;-1.928;2023-05-19T08:36:16;101755.13;;;13.10;100.00
45050;BME280;61798;48.048;-1.928;2023-05-19T08:38:22;101758.00;;;13.09;100.00
45050;BME280;61798;48.048;-1.928;2023-05-19T08:40:28;101759.81;;;13.47;100.00
45050;BME280;61798;48.048;-1.928;2023-05-19T08:42:36;101750.94;;;13.77;100.00
45050;BME280;61798;48.048;-1.928;2023-05-19T08:44:42;101750.81;;;13.85;100.00
45050;BME280;61798;48.048;-1.928;2023-05-19T08:46:48;101739.47;;;13.90;100.00
45050;BME280;61798;48.048;-1.928;2023-05-19T08:49:03;101724.81;;;13.93;100.00
45050;BME280;61798;48.048;-1.928;2023-05-19T08:53:26;101749.56;;;14.19;100.00
45050;BME280;61798;48.048;-1.928;2023-05-19T08:55:42;101722.81;;;14.02;100.00
45050;BME280;61798;48.048;-1.928;2023-05-19T08:57:51;101702.09;;;14.02;100.00
45050;BME280;61798;48.048;-1.928;2023-05-19T08:59:58;101728.91;;;14.26;100.00
45050;BME280;61798;48.048;-1.928;2023-05-19T09:02:05;101719.00;;;14.11;100.00
45050;BME280;61798;48.048;-1.928;2023-05-19T09:04:11;101692.16;;;14.03;100.00
45050;BME280;61798;48.048;-1.928;2023-05-19T09:06:17;101705.75;;;13.94;100.00
45050;BME280;61798;48.048;-1.928;2023-05-19T09:08:23;101687.44;;;14.05;100.00
45050;BME280;61798;48.048;-1.928;2023-05-19T09:10:29;101685.41;;;13.92;100.00
45050;BME280;61798;48.048;-1.928;2023-05-19T09:12:35;101715.41;;;14.04;100.00
45050;BME280;61798;48.048;-1.928;2023-05-19T09:14:41;101719.63;;;14.13;100.00
45050;BME280;61798;48.048;-1.928;2023-05-19T09:16:48;101734.38;;;14.33;100.00
45050;BME280;61798;48.048;-1.928;2023-05-19T09:18:57;101723.25;;;14.43;100.00
45050;BME280;61798;48.048;-1.928;2023-05-19T09:21:03;101710.88;;;14.48;100.00
45050;BME280;61798;48.048;-1.928;2023-05-19T09:23:14;101703.28;;;14.59;100.00
45050;BME280;61798;48.048;-1.928;2023-05-19T09:25:21;101698.16;;;14.64;100.00
45050;BME280;61798;48.048;-1.928;2023-05-19T09:27:30;101674.72;;;14.65;100.00
45050;BME280;61798;48.048;-1.928;2023-05-19T09:29:38;101703.88;;;14.76;100.00
45050;BME280;61798;48.048;-1.928;2023-05-19T09:31:53;101688.97;;;15.09;100.00
45050;BME280;61798;48.048;-1.928;2023-05-19T09:34:00;101680.22;;;15.00;100.00
45050;BME280;61798;48.048;-1.928;2023-05-19T09:36:06;101699.47;;;14.97;100.00
45050;BME280;61798;48.048;-1.928;2023-05-19T09:38:18;101654.22;;;14.70;100.00
45050;BME280;61798;48.048;-1.928;2023-05-19T09:40:26;101672.06;;;14.72;100.00
45050;BME280;61798;48.048;-1.928;2023-05-19T09:42:36;101702.44;;;15.38;100.00
45050;BME280;61798;48.048;-1.928;2023-05-19T09:44:42;101680.25;;;15.07;100.00
45050;BME280;61798;48.048;-1.928;2023-05-19T09:46:52;101655.25;;;15.34;100.00
45050;BME280;61798;48.048;-1.928;2023-05-19T09:48:58;101689.38;;;15.49;100.00
45050;BME280;61798;48.048;-1.928;2023-05-19T09:51:06;101693.19;;;15.19;100.00
45050;BME280;61798;48.048;-1.928;2023-05-19T09:53:13;101694.44;;;15.16;100.00
45050;BME280;61798;48.048;-1.928;2023-05-19T09:55:20;101695.91;;;15.26;100.00
45050;BME280;61798;48.048;-1.928;2023-05-19T09:57:32;101691.50;;;15.18;100.00
45050;BME280;61798;48.048;-1.928;2023-05-19T09:59:39;101672.84;;;15.23;100.00
45050;BME280;61798;48.048;-1.928;2023-05-19T10:01:47;101697.91;;;15.46;100.00
45050;BME280;61798;48.048;-1.928;2023-05-19T10:03:53;101683.53;;;15.38;100.00
45050;BME280;61798;48.048;-1.928;2023-05-19T10:06:05;101674.69;;;15.58;100.00
45050;BME280;61798;48.048;-1.928;2023-05-19T10:08:15;101684.25;;;15.61;100.00
45050;BME280;61798;48.048;-1.928;2023-05-19T10:10:22;101680.94;;;15.65;100.00
45050;BME280;61798;48.048;-1.928;2023-05-19T10:12:29;101673.22;;;15.56;100.00
45050;BME280;61798;48.048;-1.928;2023-05-19T10:14:36;101677.53;;;15.43;100.00
45050;BME280;61798;48.048;-1.928;2023-05-19T10:16:43;101644.66;;;15.32;100.00
45050;BME280;61798;48.048;-1.928;2023-05-19T10:18:50;101671.41;;;15.77;100.00
45050;BME280;61798;48.048;-1.928;2023-05-19T10:20:57;101639.41;;;15.67;100.00
45050;BME280;61798;48.048;-1.928;2023-05-19T10:23:04;101659.56;;;15.71;100.00
45050;BME280;61798;48.048;-1.928;2023-05-19T10:25:11;101678.75;;;15.83;100.00
45050;BME280;61798;48.048;-1.928;2023-05-19T10:27:24;101672.41;;;16.11;100.00
45050;BME280;61798;48.048;-1.928;2023-05-19T10:29:35;101661.53;;;16.04;100.00
45050;BME280;61798;48.048;-1.928;2023-05-19T10:31:43;101669.31;;;16.42;100.00
45050;BME280;61798;48.048;-1.928;2023-05-19T10:34:04;101681.16;;;16.41;100.00
45050;BME280;61798;48.048;-1.928;2023-05-19T10:36:54;101656.19;;;16.18;100.00
45050;BME280;61798;48.048;-1.928;2023-05-19T10:39:06;101669.09;;;16.16;100.00
45050;BME280;61798;48.048;-1.928;2023-05-19T10:41:28;101675.56;;;16.42;100.00
45050;BME280;61798;48.048;-1.928;2023-05-19T10:43:57;101672.03;;;16.62;100.00
45050;BME280;61798;48.048;-1.928;2023-05-19T10:46:05;101644.13;;;16.68;100.00
45050;BME280;61798;48.048;-1.928;2023-05-19T10:48:13;101656.63;;;16.56;100.00
45050;BME280;61798;48.048;-1.928;2023-05-19T10:50:20;101654.13;;;16.20;100.00
45050;BME280;61798;48.048;-1.928;2023-05-19T10:52:28;101649.75;;;16.40;100.00
45050;BME280;61798;48.048;-1.928;2023-05-19T10:54:42;101658.25;;;16.36;100.00
45050;BME280;61798;48.048;-1.928;2023-05-19T10:56:55;101647.19;;;16.04;100.00
45050;BME280;61798;48.048;-1.928;2023-05-19T10:59:02;101655.78;;;16.48;100.00
45050;BME280;61798;48.048;-1.928;2023-05-19T11:01:12;101640.38;;;16.83;100.00
45050;BME280;61798;48.048;-1.928;2023-05-19T11:03:18;101586.09;;;16.23;100.00
45050;BME280;61798;48.048;-1.928;2023-05-19T11:05:28;101631.66;;;16.54;100.00
45050;BME280;61798;48.048;-1.928;2023-05-19T11:07:34;101595.84;;;16.58;100.00
45050;BME280;61798;48.048;-1.928;2023-05-19T11:09:40;101595.78;;;16.86;100.00